sensor_id;sensor_type;location;lat;lon;timestamp;temperature;humidity
16479;DHT22;8350;52.316;10.530;2023-01-01T00:00:39;14.50;1.00
16479;DHT22;8350;52.316;10.530;2023-01-01T00:03:07;14.40;1.00
16479;DHT22;8350;52.316;10.530;2023-01-01T00:05:37;14.40;1.00
16479;DHT22;8350;52.316;10.530;2023-01-01T00:08:04;14.40;1.00
16479;DHT22;8350;52.316;10.530;2023-01-01T00:10:33;14.40;1.00
16479;DHT22;8350;52.316;10.530;2023-01-01T00:13:00;14.40;1.00
16479;DHT22;8350;52.316;10.530;2023-01-01T00:15:30;14.40;1.00
16479;DHT22;8350;52.316;10.530;2023-01-01T00:17:57;14.40;1.00
16479;DHT22;8350;52.316;10.530;2023-01-01T00:20:26;14.40;1.00
16479;DHT22;8350;52.316;10.530;2023-01-01T00:22:53;14.40;1.00
16479;DHT22;8350;52.316;10.530;2023-01-01T00:25:20;14.40;1.00
16479;DHT22;8350;52.316;10.530;2023-01-01T00:27:48;14.40;1.00
16479;DHT22;8350;52.316;10.530;2023-01-01T00:30:15;14.40;1.00
16479;DHT22;8350;52.316;10.530;2023-01-01T00:32:41;14.30;1.00
16479;DHT22;8350;52.316;10.530;2023-01-01T00:35:10;14.30;1.00
16479;DHT22;8350;52.316;10.530;2023-01-01T00:37:38;14.30;1.00
16479;DHT22;8350;52.316;10.530;2023-01-01T00:40:06;14.30;1.00
16479;DHT22;8350;52.316;10.530;2023-01-01T00:42:33;14.40;1.00
16479;DHT22;8350;52.316;10.530;2023-01-01T00:45:00;14.40;1.00
16479;DHT22;8350;52.316;10.530;2023-01-01T00:47:27;14.40;1.00
16479;DHT22;8350;52.316;10.530;2023-01-01T00:49:54;14.50;1.00
16479;DHT22;8350;52.316;10.530;2023-01-01T00:52:21;14.50;99.90
16479;DHT22;8350;52.316;10.530;2023-01-01T00:54:49;14.50;99.90
16479;DHT22;8350;52.316;10.530;2023-01-01T00:57:16;14.60;99.90
16479;DHT22;8350;52.316;10.530;2023-01-01T00:59:43;14.60;99.90
16479;DHT22;8350;52.316;10.530;2023-01-01T01:02:10;14.60;99.90
16479;DHT22;8350;52.316;10.530;2023-01-01T01:04:37;14.60;99.90
16479;DHT22;8350;52.316;10.530;2023-01-01T01:07:04;14.70;99.90
16479;DHT22;8350;52.316;10.530;2023-01-01T01:09:31;14.70;99.90
16479;DHT22;8350;52.316;10.530;2023-01-01T01:12:00;14.70;99.90
16479;DHT22;8350;52.316;10.530;2023-01-01T01:14:27;14.70;99.90
16479;DHT22;8350;52.316;10.530;2023-01-01T01:16:54;14.70;99.90
16479;DHT22;8350;52.316;10.530;2023-01-01T01:19:21;14.70;99.90
16479;DHT22;8350;52.316;10.530;2023-01-01T01:21:50;14.80;99.90
16479;DHT22;8350;52.316;10.530;2023-01-01T01:24:17;14.80;99.90
16479;DHT22;8350;52.316;10.530;2023-01-01T01:26:44;14.80;99.90
16479;DHT22;8350;52.316;10.530;2023-01-01T01:29:12;14.80;99.90
16479;DHT22;8350;52.316;10.530;2023-01-01T01:31:39;14.80;99.90
16479;DHT22;8350;52.316;10.530;2023-01-01T01:34:06;14.80;99.90
16479;DHT22;8350;52.316;10.530;2023-01-01T01:36:33;14.70;99.90
16479;DHT22;8350;52.316;10.530;2023-01-01T01:39:00;14.70;99.90
16479;DHT22;8350;52.316;10.530;2023-01-01T01:41:27;14.70;99.90
16479;DHT22;8350;52.316;10.530;2023-01-01T01:43:56;14.70;99.90
16479;DHT22;8350;52.316;10.530;2023-01-01T01:46:29;14.70;99.90
16479;DHT22;8350;52.316;10.530;2023-01-01T01:49:01;14.70;99.90
16479;DHT22;8350;52.316;10.530;2023-01-01T01:51:32;14.70;99.90
16479;DHT22;8350;52.316;10.530;2023-01-01T01:54:04;14.60;99.90
16479;DHT22;8350;52.316;10.530;2023-01-01T01:56:38;14.60;99.90
16479;DHT22;8350;52.316;10.530;2023-01-01T01:59:06;14.60;99.90
16479;DHT22;8350;52.316;10.530;2023-01-01T02:01:38;14.60;99.90
16479;DHT22;8350;52.316;10.530;2023-01-01T02:04:05;14.60;99.90
16479;DHT22;8350;52.316;10.530;2023-01-01T02:06:34;14.70;99.90
16479;DHT22;8350;52.316;10.530;2023-01-01T02:09:03;14.70;99.90
16479;DHT22;8350;52.316;10.530;2023-01-01T02:11:31;14.80;99.90
16479;DHT22;8350;52.316;10.530;2023-01-01T02:13:59;14.80;99.90
16479;DHT22;8350;52.316;10.530;2023-01-01T02:16:32;14.80;99.90
16479;DHT22;8350;52.316;10.530;2023-01-01T02:19:14;14.80;99.90
16479;DHT22;8350;52.316;10.530;2023-01-01T02:21:54;14.80;99.90
16479;DHT22;8350;52.316;10.530;2023-01-01T02:24:35;14.80;99.90
16479;DHT22;8350;52.316;10.530;2023-01-01T02:27:14;14.70;99.90
16479;DHT22;8350;52.316;10.530;2023-01-01T02:29:48;14.60;99.90
16479;DHT22;8350;52.316;10.530;2023-01-01T02:32:20;14.60;99.90
16479;DHT22;8350;52.316;10.530;2023-01-01T02:34:51;14.50;99.90
16479;DHT22;8350;52.316;10.530;2023-01-01T02:37:19;14.50;99.90
16479;DHT22;8350;52.316;10.530;2023-01-01T02:39:51;14.50;99.90
16479;DHT22;8350;52.316;10.530;2023-01-01T02:42:20;14.40;99.90
16479;DHT22;8350;52.316;10.530;2023-01-01T02:44:52;14.40;99.90
16479;DHT22;8350;52.316;10.530;2023-01-01T02:47:20;14.30;99.90
16479;DHT22;8350;52.316;10.530;2023-01-01T02:49:58;14.30;99.90
16479;DHT22;8350;52.316;10.530;2023-01-01T02:52:56;14.20;99.90
16479;DHT22;8350;52.316;10.530;2023-01-01T02:55:32;14.20;99.90
16479;DHT22;8350;52.316;10.530;2023-01-01T02:58:07;14.20;99.90
16479;DHT22;8350;52.316;10.530;2023-01-01T03:00:57;14.20;99.90
16479;DHT22;8350;52.316;10.530;2023-01-01T03:03:37;14.20;99.90
16479;DHT22;8350;52.316;10.530;2023-01-01T03:06:09;14.20;99.90
16479;DHT22;8350;52.316;10.530;2023-01-01T03:08:52;14.20;99.90
16479;DHT22;8350;52.316;10.530;2023-01-01T03:11:22;14.20;99.90
16479;DHT22;8350;52.316;10.530;2023-01-01T03:13:56;14.20;99.90
16479;DHT22;8350;52.316;10.530;2023-01-01T03:16:34;14.20;99.90
16479;DHT22;8350;52.316;10.530;2023-01-01T03:19:08;14.20;99.90
16479;DHT22;8350;52.316;10.530;2023-01-01T03:21:39;14.20;99.90
16479;DHT22;8350;52.316;10.530;2023-01-01T03:24:09;14.30;99.90
16479;DHT22;8350;52.316;10.530;2023-01-01T03:26:40;14.20;99.90
16479;DHT22;8350;52.316;10.530;2023-01-01T03:29:08;14.20;99.90
16479;DHT22;8350;52.316;10.530;2023-01-01T03:31:39;14.10;99.90
16479;DHT22;8350;52.316;10.530;2023-01-01T03:34:11;14.20;99.90
16479;DHT22;8350;52.316;10.530;2023-01-01T03:36:42;14.10;99.90
16479;DHT22;8350;52.316;10.530;2023-01-01T03:39:11;14.10;99.90
16479;DHT22;8350;52.316;10.530;2023-01-01T03:41:41;14.10;99.90
16479;DHT22;8350;52.316;10.530;2023-01-01T03:44:16;14.10;99.90
16479;DHT22;8350;52.316;10.530;2023-01-01T03:46:45;14.10;99.90
16479;DHT22;8350;52.316;10.530;2023-01-01T03:49:13;14.20;99.90
16479;DHT22;8350;52.316;10.530;2023-01-01T03:52:09;14.10;99.90
16479;DHT22;8350;52.316;10.530;2023-01-01T03:54:44;14.10;99.90
16479;DHT22;8350;52.316;10.530;2023-01-01T03:57:20;14.10;99.90
16479;DHT22;8350;52.316;10.530;2023-01-01T03:59:55;14.10;99.90
16479;DHT22;8350;52.316;10.530;2023-01-01T04:02:29;14.00;99.90
16479;DHT22;8350;52.316;10.530;2023-01-01T04:04:58;14.00;99.90
16479;DHT22;8350;52.316;10.530;2023-01-01T04:07:28;14.00;99.90
16479;DHT22;8350;52.316;10.530;2023-01-01T04:09:58;14.00;99.90
16479;DHT22;8350;52.316;10.530;2023-01-01T04:12:27;14.00;99.90
16479;DHT22;8350;52.316;10.530;2023-01-01T04:14:55;14.00;99.90
16479;DHT22;8350;52.316;10.530;2023-01-01T04:17:22;13.90;99.90
16479;DHT22;8350;52.316;10.530;2023-01-01T04:19:51;13.90;99.90
16479;DHT22;8350;52.316;10.530;2023-01-01T04:22:18;13.90;99.90
16479;DHT22;8350;52.316;10.530;2023-01-01T04:24:47;13.90;99.90
16479;DHT22;8350;52.316;10.530;2023-01-01T04:27:14;13.90;99.90
16479;DHT22;8350;52.316;10.530;2023-01-01T04:29:44;13.90;99.90
16479;DHT22;8350;52.316;10.530;2023-01-01T04:32:11;13.80;99.90
16479;DHT22;8350;52.316;10.530;2023-01-01T04:34:38;13.80;99.90
16479;DHT22;8350;52.316;10.530;2023-01-01T04:37:06;13.80;99.90
16479;DHT22;8350;52.316;10.530;2023-01-01T04:39:35;13.70;99.90
16479;DHT22;8350;52.316;10.530;2023-01-01T04:42:03;13.80;99.90
16479;DHT22;8350;52.316;10.530;2023-01-01T04:44:31;13.80;99.90
16479;DHT22;8350;52.316;10.530;2023-01-01T04:47:03;13.70;99.90
16479;DHT22;8350;52.316;10.530;2023-01-01T04:49:30;13.70;99.90
16479;DHT22;8350;52.316;10.530;2023-01-01T04:51:57;13.60;99.90
16479;DHT22;8350;52.316;10.530;2023-01-01T04:54:28;13.60;99.90
16479;DHT22;8350;52.316;10.530;2023-01-01T04:56:55;13.60;99.90
16479;DHT22;8350;52.316;10.530;2023-01-01T04:59:22;13.60;99.90
16479;DHT22;8350;52.316;10.530;2023-01-01T05:01:49;13.50;99.90
16479;DHT22;8350;52.316;10.530;2023-01-01T05:04:16;13.50;99.90
16479;DHT22;8350;52.316;10.530;2023-01-01T05:06:43;13.50;99.90
16479;DHT22;8350;52.316;10.530;2023-01-01T05:09:11;13.50;99.90
16479;DHT22;8350;52.316;10.530;2023-01-01T05:11:40;13.50;99.90
16479;DHT22;8350;52.316;10.530;2023-01-01T05:14:09;13.50;99.90
16479;DHT22;8350;52.316;10.530;2023-01-01T05:16:38;13.40;99.90
16479;DHT22;8350;52.316;10.530;2023-01-01T05:19:05;13.40;99.90
16479;DHT22;8350;52.316;10.530;2023-01-01T05:21:36;13.40;99.90
16479;DHT22;8350;52.316;10.530;2023-01-01T05:24:05;13.40;99.90
16479;DHT22;8350;52.316;10.530;2023-01-01T05:26:34;13.40;99.90
16479;DHT22;8350;52.316;10.530;2023-01-01T05:29:03;13.40;99.90
16479;DHT22;8350;52.316;10.530;2023-01-01T05:31:33;13.40;99.90
16479;DHT22;8350;52.316;10.530;2023-01-01T05:34:01;13.40;99.90
16479;DHT22;8350;52.316;10.530;2023-01-01T05:36:30;13.40;99.90
16479;DHT22;8350;52.316;10.530;2023-01-01T05:38:58;13.40;99.90
16479;DHT22;8350;52.316;10.530;2023-01-01T05:41:25;13.40;99.90
16479;DHT22;8350;52.316;10.530;2023-01-01T05:43:52;13.50;99.90
16479;DHT22;8350;52.316;10.530;2023-01-01T05:46:22;13.40;99.90
16479;DHT22;8350;52.316;10.530;2023-01-01T05:48:50;13.40;99.90
16479;DHT22;8350;52.316;10.530;2023-01-01T05:51:18;13.40;99.90
16479;DHT22;8350;52.316;10.530;2023-01-01T05:53:46;13.40;99.90
16479;DHT22;8350;52.316;10.530;2023-01-01T05:56:14;13.40;99.90
16479;DHT22;8350;52.316;10.530;2023-01-01T05:58:42;13.40;99.90
16479;DHT22;8350;52.316;10.530;2023-01-01T06:01:11;13.40;99.90
16479;DHT22;8350;52.316;10.530;2023-01-01T06:03:41;13.40;99.90
16479;DHT22;8350;52.316;10.530;2023-01-01T06:06:10;13.40;99.90
16479;DHT22;8350;52.316;10.530;2023-01-01T06:08:38;13.40;99.90
16479;DHT22;8350;52.316;10.530;2023-01-01T06:11:07;13.40;99.90
16479;DHT22;8350;52.316;10.530;2023-01-01T06:13:35;13.40;99.90
16479;DHT22;8350;52.316;10.530;2023-01-01T06:16:02;13.40;99.90
16479;DHT22;8350;52.316;10.530;2023-01-01T06:18:32;13.40;99.90
16479;DHT22;8350;52.316;10.530;2023-01-01T06:21:05;13.40;99.90
16479;DHT22;8350;52.316;10.530;2023-01-01T06:23:32;13.50;99.90
16479;DHT22;8350;52.316;10.530;2023-01-01T06:26:07;13.50;99.90
16479;DHT22;8350;52.316;10.530;2023-01-01T06:28:37;13.50;99.90
16479;DHT22;8350;52.316;10.530;2023-01-01T06:31:06;13.50;99.90
16479;DHT22;8350;52.316;10.530;2023-01-01T06:33:34;13.50;99.90
16479;DHT22;8350;52.316;10.530;2023-01-01T06:36:02;13.50;99.90
16479;DHT22;8350;52.316;10.530;2023-01-01T06:38:32;13.50;99.90
16479;DHT22;8350;52.316;10.530;2023-01-01T06:41:01;13.50;99.90
16479;DHT22;8350;52.316;10.530;2023-01-01T06:43:30;13.50;99.90
16479;DHT22;8350;52.316;10.530;2023-01-01T06:46:01;13.60;99.90
16479;DHT22;8350;52.316;10.530;2023-01-01T06:48:30;13.50;99.90
16479;DHT22;8350;52.316;10.530;2023-01-01T06:50:57;13.50;99.90
16479;DHT22;8350;52.316;10.530;2023-01-01T06:53:25;13.50;99.90
16479;DHT22;8350;52.316;10.530;2023-01-01T06:55:53;13.50;99.90
16479;DHT22;8350;52.316;10.530;2023-01-01T06:58:20;13.40;99.90
16479;DHT22;8350;52.316;10.530;2023-01-01T07:00:48;13.40;99.90
16479;DHT22;8350;52.316;10.530;2023-01-01T07:03:15;13.40;99.90
16479;DHT22;8350;52.316;10.530;2023-01-01T07:05:42;13.40;99.90
16479;DHT22;8350;52.316;10.530;2023-01-01T07:08:11;13.30;99.90
16479;DHT22;8350;52.316;10.530;2023-01-01T07:10:38;13.30;99.90
16479;DHT22;8350;52.316;10.530;2023-01-01T07:13:06;13.30;99.90
16479;DHT22;8350;52.316;10.530;2023-01-01T07:15:33;13.30;99.90
16479;DHT22;8350;52.316;10.530;2023-01-01T07:18:00;13.20;99.90
16479;DHT22;8350;52.316;10.530;2023-01-01T07:20:27;13.20;99.90
16479;DHT22;8350;52.316;10.530;2023-01-01T07:22:54;13.20;99.90
16479;DHT22;8350;52.316;10.530;2023-01-01T07:25:21;13.20;99.90
16479;DHT22;8350;52.316;10.530;2023-01-01T07:27:51;13.20;99.90
16479;DHT22;8350;52.316;10.530;2023-01-01T07:30:20;13.20;1.00
16479;DHT22;8350;52.316;10.530;2023-01-01T07:32:47;13.30;1.00
16479;DHT22;8350;52.316;10.530;2023-01-01T07:35:19;13.30;1.00
16479;DHT22;8350;52.316;10.530;2023-01-01T07:37:46;13.20;1.00
16479;DHT22;8350;52.316;10.530;2023-01-01T07:40:13;13.20;1.00
16479;DHT22;8350;52.316;10.530;2023-01-01T07:42:40;13.30;1.00
16479;DHT22;8350;52.316;10.530;2023-01-01T07:45:09;13.30;1.00
16479;DHT22;8350;52.316;10.530;2023-01-01T07:47:38;13.30;1.00
16479;DHT22;8350;52.316;10.530;2023-01-01T07:50:06;13.30;1.00
16479;DHT22;8350;52.316;10.530;2023-01-01T07:52:33;13.40;1.00
16479;DHT22;8350;52.316;10.530;2023-01-01T07:54:59;13.40;1.00
16479;DHT22;8350;52.316;10.530;2023-01-01T07:57:27;13.40;1.00
16479;DHT22;8350;52.316;10.530;2023-01-01T07:59:56;13.40;1.00
16479;DHT22;8350;52.316;10.530;2023-01-01T08:02:24;13.40;1.00
16479;DHT22;8350;52.316;10.530;2023-01-01T08:04:52;13.40;1.00
16479;DHT22;8350;52.316;10.530;2023-01-01T08:07:19;13.40;1.00
16479;DHT22;8350;52.316;10.530;2023-01-01T08:09:46;13.40;1.00
16479;DHT22;8350;52.316;10.530;2023-01-01T08:12:13;13.40;1.00
16479;DHT22;8350;52.316;10.530;2023-01-01T08:14:40;13.50;1.00
16479;DHT22;8350;52.316;10.530;2023-01-01T08:17:07;13.50;1.00
16479;DHT22;8350;52.316;10.530;2023-01-01T08:19:34;13.50;1.00
16479;DHT22;8350;52.316;10.530;2023-01-01T08:22:04;13.60;1.00
16479;DHT22;8350;52.316;10.530;2023-01-01T08:24:31;13.50;1.00
16479;DHT22;8350;52.316;10.530;2023-01-01T08:26:58;13.50;1.00
16479;DHT22;8350;52.316;10.530;2023-01-01T08:29:25;13.50;1.00
16479;DHT22;8350;52.316;10.530;2023-01-01T08:31:52;13.50;1.00
16479;DHT22;8350;52.316;10.530;2023-01-01T08:34:19;13.60;1.00
16479;DHT22;8350;52.316;10.530;2023-01-01T08:36:46;13.60;1.00
16479;DHT22;8350;52.316;10.530;2023-01-01T08:39:14;13.60;1.00
16479;DHT22;8350;52.316;10.530;2023-01-01T08:41:44;13.70;1.00
16479;DHT22;8350;52.316;10.530;2023-01-01T08:44:11;13.70;1.00
16479;DHT22;8350;52.316;10.530;2023-01-01T08:46:38;13.70;1.00
16479;DHT22;8350;52.316;10.530;2023-01-01T08:49:05;13.80;1.00
16479;DHT22;8350;52.316;10.530;2023-01-01T08:51:32;13.80;1.00
16479;DHT22;8350;52.316;10.530;2023-01-01T08:53:59;13.80;1.00
16479;DHT22;8350;52.316;10.530;2023-01-01T08:56:27;13.90;1.00
16479;DHT22;8350;52.316;10.530;2023-01-01T08:58:54;13.90;1.00
16479;DHT22;8350;52.316;10.530;2023-01-01T09:01:21;13.90;1.00
16479;DHT22;8350;52.316;10.530;2023-01-01T09:03:50;13.90;1.00
16479;DHT22;8350;52.316;10.530;2023-01-01T09:06:18;13.80;1.00
16479;DHT22;8350;52.316;10.530;2023-01-01T09:08:45;13.80;1.00
16479;DHT22;8350;52.316;10.530;2023-01-01T09:11:19;13.70;1.00
16479;DHT22;8350;52.316;10.530;2023-01-01T09:13:48;13.80;1.00
16479;DHT22;8350;52.316;10.530;2023-01-01T09:16:16;13.80;1.00
16479;DHT22;8350;52.316;10.530;2023-01-01T09:18:43;13.80;1.00
16479;DHT22;8350;52.316;10.530;2023-01-01T09:21:10;13.80;1.00
16479;DHT22;8350;52.316;10.530;2023-01-01T09:23:37;13.80;1.00
16479;DHT22;8350;52.316;10.530;2023-01-01T09:26:05;13.80;1.00
16479;DHT22;8350;52.316;10.530;2023-01-01T09:28:32;13.70;1.00
16479;DHT22;8350;52.316;10.530;2023-01-01T09:31:00;13.70;1.00
16479;DHT22;8350;52.316;10.530;2023-01-01T09:33:29;13.70;1.00
16479;DHT22;8350;52.316;10.530;2023-01-01T09:36:11;13.70;1.00
16479;DHT22;8350;52.316;10.530;2023-01-01T09:38:38;13.70;1.00
16479;DHT22;8350;52.316;10.530;2023-01-01T09:41:12;13.70;1.00
16479;DHT22;8350;52.316;10.530;2023-01-01T09:43:50;13.70;1.00
16479;DHT22;8350;52.316;10.530;2023-01-01T09:46:27;13.70;1.00
16479;DHT22;8350;52.316;10.530;2023-01-01T09:48:56;13.70;1.00
16479;DHT22;8350;52.316;10.530;2023-01-01T09:51:26;13.70;1.00
16479;DHT22;8350;52.316;10.530;2023-01-01T09:53:58;13.70;1.00
16479;DHT22;8350;52.316;10.530;2023-01-01T09:56:28;13.70;1.00
16479;DHT22;8350;52.316;10.530;2023-01-01T09:58:57;13.70;1.00
16479;DHT22;8350;52.316;10.530;2023-01-01T10:01:33;13.70;1.00
16479;DHT22;8350;52.316;10.530;2023-01-01T10:04:14;13.70;1.00
16479;DHT22;8350;52.316;10.530;2023-01-01T10:06:49;13.60;1.00
16479;DHT22;8350;52.316;10.530;2023-01-01T10:09:24;13.60;1.00
16479;DHT22;8350;52.316;10.530;2023-01-01T10:11:57;13.70;1.00
16479;DHT22;8350;52.316;10.530;2023-01-01T10:14:31;13.70;1.00
16479;DHT22;8350;52.316;10.530;2023-01-01T10:17:02;13.70;1.00
16479;DHT22;8350;52.316;10.530;2023-01-01T10:19:32;13.80;1.00
16479;DHT22;8350;52.316;10.530;2023-01-01T10:22:04;13.80;1.00
16479;DHT22;8350;52.316;10.530;2023-01-01T10:24:39;13.80;1.00
16479;DHT22;8350;52.316;10.530;2023-01-01T10:27:21;13.80;1.00
16479;DHT22;8350;52.316;10.530;2023-01-01T10:29:51;13.90;1.00
16479;DHT22;8350;52.316;10.530;2023-01-01T10:32:24;13.80;1.00
16479;DHT22;8350;52.316;10.530;2023-01-01T10:34:55;13.90;1.00
16479;DHT22;8350;52.316;10.530;2023-01-01T10:37:23;13.80;1.00
16479;DHT22;8350;52.316;10.530;2023-01-01T10:39:52;13.80;1.00
16479;DHT22;8350;52.316;10.530;2023-01-01T10:42:19;13.80;1.00
16479;DHT22;8350;52.316;10.530;2023-01-01T10:44:46;13.80;1.00
16479;DHT22;8350;52.316;10.530;2023-01-01T10:47:26;13.80;1.00
16479;DHT22;8350;52.316;10.530;2023-01-01T10:49:56;13.80;1.00
16479;DHT22;8350;52.316;10.530;2023-01-01T10:52:28;13.90;1.00
16479;DHT22;8350;52.316;10.530;2023-01-01T10:54:57;13.90;1.00
16479;DHT22;8350;52.316;10.530;2023-01-01T10:57:32;13.90;1.00
16479;DHT22;8350;52.316;10.530;2023-01-01T11:00:20;13.90;1.00
16479;DHT22;8350;52.316;10.530;2023-01-01T11:03:09;13.90;1.00
16479;DHT22;8350;52.316;10.530;2023-01-01T11:05:37;13.80;1.00
16479;DHT22;8350;52.316;10.530;2023-01-01T11:08:15;13.80;1.00
16479;DHT22;8350;52.316;10.530;2023-01-01T11:10:49;13.80;1.00
16479;DHT22;8350;52.316;10.530;2023-01-01T11:13:18;13.80;1.00
16479;DHT22;8350;52.316;10.530;2023-01-01T11:15:52;13.70;1.00
16479;DHT22;8350;52.316;10.530;2023-01-01T11:18:24;13.70;1.00
16479;DHT22;8350;52.316;10.530;2023-01-01T11:20:52;13.60;1.00
16479;DHT22;8350;52.316;10.530;2023-01-01T11:23:28;13.50;1.00
16479;DHT22;8350;52.316;10.530;2023-01-01T11:25:58;13.50;1.00
16479;DHT22;8350;52.316;10.530;2023-01-01T11:28:29;13.40;1.00
16479;DHT22;8350;52.316;10.530;2023-01-01T11:31:04;13.30;1.00
16479;DHT22;8350;52.316;10.530;2023-01-01T11:33:36;13.30;1.00
16479;DHT22;8350;52.316;10.530;2023-01-01T11:36:06;13.30;1.00
16479;DHT22;8350;52.316;10.530;2023-01-01T11:38:33;13.10;1.00
16479;DHT22;8350;52.316;10.530;2023-01-01T11:44:02;13.10;1.00
16479;DHT22;8350;52.316;10.530;2023-01-01T11:46:29;12.90;14.90
16479;DHT22;8350;52.316;10.530;2023-01-01T11:48:57;12.80;50.40
16479;DHT22;8350;52.316;10.530;2023-01-01T11:51:32;12.70;87.90
16479;DHT22;8350;52.316;10.530;2023-01-01T11:54:11;12.70;99.90
16479;DHT22;8350;52.316;10.530;2023-01-01T11:56:47;12.70;99.90
16479;DHT22;8350;52.316;10.530;2023-01-01T11:59:17;12.60;99.90
16479;DHT22;8350;52.316;10.530;2023-01-01T12:01:49;12.60;99.90
16479;DHT22;8350;52.316;10.530;2023-01-01T12:04:24;12.70;99.90
16479;DHT22;8350;52.316;10.530;2023-01-01T12:06:58;12.70;99.90
16479;DHT22;8350;52.316;10.530;2023-01-01T12:09:36;12.60;99.90
16479;DHT22;8350;52.316;10.530;2023-01-01T12:12:08;12.60;99.90
16479;DHT22;8350;52.316;10.530;2023-01-01T12:14:44;12.70;99.90
16479;DHT22;8350;52.316;10.530;2023-01-01T12:17:17;12.70;99.90
16479;DHT22;8350;52.316;10.530;2023-01-01T12:19:56;12.70;99.90
16479;DHT22;8350;52.316;10.530;2023-01-01T12:22:25;12.60;95.50
16479;DHT22;8350;52.316;10.530;2023-01-01T12:24:52;12.60;97.60
16479;DHT22;8350;52.316;10.530;2023-01-01T12:27:39;12.60;91.20
16479;DHT22;8350;52.316;10.530;2023-01-01T12:30:26;12.50;83.70
16479;DHT22;8350;52.316;10.530;2023-01-01T12:36:02;12.40;89.90
16479;DHT22;8350;52.316;10.530;2023-01-01T12:38:43;12.40;93.10
16479;DHT22;8350;52.316;10.530;2023-01-01T12:41:20;12.30;95.10
16479;DHT22;8350;52.316;10.530;2023-01-01T12:43:57;12.30;91.00
16479;DHT22;8350;52.316;10.530;2023-01-01T12:46:38;12.40;90.20
16479;DHT22;8350;52.316;10.530;2023-01-01T12:49:35;12.30;85.50
16479;DHT22;8350;52.316;10.530;2023-01-01T12:52:18;12.30;92.80
16479;DHT22;8350;52.316;10.530;2023-01-01T12:55:01;12.30;91.50
16479;DHT22;8350;52.316;10.530;2023-01-01T12:57:37;12.30;90.50
16479;DHT22;8350;52.316;10.530;2023-01-01T13:00:12;12.30;94.40
16479;DHT22;8350;52.316;10.530;2023-01-01T13:02:46;12.30;93.90
16479;DHT22;8350;52.316;10.530;2023-01-01T13:05:17;12.20;98.40
16479;DHT22;8350;52.316;10.530;2023-01-01T13:07:50;12.20;93.10
16479;DHT22;8350;52.316;10.530;2023-01-01T13:10:32;12.20;96.00
16479;DHT22;8350;52.316;10.530;2023-01-01T13:13:01;12.20;99.60
16479;DHT22;8350;52.316;10.530;2023-01-01T13:18:33;12.20;99.90
16479;DHT22;8350;52.316;10.530;2023-01-01T13:21:05;12.10;99.90
16479;DHT22;8350;52.316;10.530;2023-01-01T13:23:51;12.20;99.90
16479;DHT22;8350;52.316;10.530;2023-01-01T13:26:35;12.20;99.90
16479;DHT22;8350;52.316;10.530;2023-01-01T13:29:31;12.20;99.90
16479;DHT22;8350;52.316;10.530;2023-01-01T13:32:01;12.30;96.80
16479;DHT22;8350;52.316;10.530;2023-01-01T13:37:45;12.30;90.80
16479;DHT22;8350;52.316;10.530;2023-01-01T13:43:29;12.30;95.50
16479;DHT22;8350;52.316;10.530;2023-01-01T13:45:58;12.20;99.90
16479;DHT22;8350;52.316;10.530;2023-01-01T13:49:19;12.10;99.90
16479;DHT22;8350;52.316;10.530;2023-01-01T13:52:24;12.20;99.90
16479;DHT22;8350;52.316;10.530;2023-01-01T13:55:33;12.10;99.90
16479;DHT22;8350;52.316;10.530;2023-01-01T13:58:44;12.10;99.90
16479;DHT22;8350;52.316;10.530;2023-01-01T14:01:40;12.10;99.90
16479;DHT22;8350;52.316;10.530;2023-01-01T14:04:23;12.00;99.90
16479;DHT22;8350;52.316;10.530;2023-01-01T14:06:54;12.00;99.90
16479;DHT22;8350;52.316;10.530;2023-01-01T14:09:22;11.90;99.90
16479;DHT22;8350;52.316;10.530;2023-01-01T14:11:52;11.90;99.90
16479;DHT22;8350;52.316;10.530;2023-01-01T14:14:26;11.80;99.90
16479;DHT22;8350;52.316;10.530;2023-01-01T14:16:56;11.80;99.90
16479;DHT22;8350;52.316;10.530;2023-01-01T14:19:25;11.70;99.90
16479;DHT22;8350;52.316;10.530;2023-01-01T14:21:53;11.70;99.90
16479;DHT22;8350;52.316;10.530;2023-01-01T14:24:21;11.70;99.90
16479;DHT22;8350;52.316;10.530;2023-01-01T14:26:50;11.70;99.90
16479;DHT22;8350;52.316;10.530;2023-01-01T14:29:23;11.60;99.90
16479;DHT22;8350;52.316;10.530;2023-01-01T14:31:57;11.60;99.90
16479;DHT22;8350;52.316;10.530;2023-01-01T14:34:27;11.60;99.90
16479;DHT22;8350;52.316;10.530;2023-01-01T14:36:58;11.50;99.90
16479;DHT22;8350;52.316;10.530;2023-01-01T14:39:29;11.60;99.90
16479;DHT22;8350;52.316;10.530;2023-01-01T14:41:59;11.50;99.90
16479;DHT22;8350;52.316;10.530;2023-01-01T14:44:31;11.50;99.90
16479;DHT22;8350;52.316;10.530;2023-01-01T14:47:01;11.40;99.90
16479;DHT22;8350;52.316;10.530;2023-01-01T14:49:33;11.30;99.90
16479;DHT22;8350;52.316;10.530;2023-01-01T14:52:05;11.40;99.90
16479;DHT22;8350;52.316;10.530;2023-01-01T14:54:36;11.30;99.90
16479;DHT22;8350;52.316;10.530;2023-01-01T14:57:08;11.30;99.90
16479;DHT22;8350;52.316;10.530;2023-01-01T14:59:44;11.20;99.90
16479;DHT22;8350;52.316;10.530;2023-01-01T15:02:15;11.00;99.90
16479;DHT22;8350;52.316;10.530;2023-01-01T15:04:42;10.90;99.90
16479;DHT22;8350;52.316;10.530;2023-01-01T15:07:18;10.80;99.90
16479;DHT22;8350;52.316;10.530;2023-01-01T15:09:46;10.70;99.90
16479;DHT22;8350;52.316;10.530;2023-01-01T15:12:14;10.70;99.90
16479;DHT22;8350;52.316;10.530;2023-01-01T15:14:43;10.70;99.90
16479;DHT22;8350;52.316;10.530;2023-01-01T15:17:13;10.70;99.90
16479;DHT22;8350;52.316;10.530;2023-01-01T15:19:42;10.60;99.90
16479;DHT22;8350;52.316;10.530;2023-01-01T15:22:20;10.60;99.90
16479;DHT22;8350;52.316;10.530;2023-01-01T15:24:50;10.50;99.90
16479;DHT22;8350;52.316;10.530;2023-01-01T15:27:21;10.40;99.90
16479;DHT22;8350;52.316;10.530;2023-01-01T15:29:50;10.30;99.90
16479;DHT22;8350;52.316;10.530;2023-01-01T15:32:24;10.10;99.90
16479;DHT22;8350;52.316;10.530;2023-01-01T15:34:52;9.90;99.90
16479;DHT22;8350;52.316;10.530;2023-01-01T15:37:28;9.70;99.90
16479;DHT22;8350;52.316;10.530;2023-01-01T15:39:59;9.50;99.90
16479;DHT22;8350;52.316;10.530;2023-01-01T15:42:34;9.40;99.90
16479;DHT22;8350;52.316;10.530;2023-01-01T15:45:24;9.30;99.90
16479;DHT22;8350;52.316;10.530;2023-01-01T15:47:55;9.20;99.90
16479;DHT22;8350;52.316;10.530;2023-01-01T15:50:24;9.20;99.90
16479;DHT22;8350;52.316;10.530;2023-01-01T15:52:56;9.30;99.90
16479;DHT22;8350;52.316;10.530;2023-01-01T15:55:29;9.30;99.90
16479;DHT22;8350;52.316;10.530;2023-01-01T15:57:57;9.30;99.90
16479;DHT22;8350;52.316;10.530;2023-01-01T16:00:27;9.10;99.90
16479;DHT22;8350;52.316;10.530;2023-01-01T16:02:59;9.10;99.90
16479;DHT22;8350;52.316;10.530;2023-01-01T16:05:28;9.00;99.90
16479;DHT22;8350;52.316;10.530;2023-01-01T16:07:57;9.00;99.90
16479;DHT22;8350;52.316;10.530;2023-01-01T16:10:28;9.00;99.90
16479;DHT22;8350;52.316;10.530;2023-01-01T16:12:56;8.90;99.90
16479;DHT22;8350;52.316;10.530;2023-01-01T16:15:23;8.90;99.90
16479;DHT22;8350;52.316;10.530;2023-01-01T16:17:51;8.90;99.90